sensor_id;sensor_type;location;lat;lon;timestamp;P1;durP1;ratioP1;P2;durP2;ratioP2
50585;SDS011;36542;51.700;8.846;2023-05-10T00:01:41;39.67;;;30.43;;
50585;SDS011;36542;51.700;8.846;2023-05-10T00:04:07;40.57;;;30.00;;
50585;SDS011;36542;51.700;8.846;2023-05-10T00:06:32;43.00;;;31.23;;
50585;SDS011;36542;51.700;8.846;2023-05-10T00:08:58;43.10;;;31.63;;
50585;SDS011;36542;51.700;8.846;2023-05-10T00:11:23;40.23;;;30.30;;
50585;SDS011;36542;51.700;8.846;2023-05-10T00:13:49;40.93;;;31.00;;
50585;SDS011;36542;51.700;8.846;2023-05-10T00:16:14;28.40;;;23.67;;
50585;SDS011;36542;51.700;8.846;2023-05-10T00:18:40;38.30;;;28.60;;
50585;SDS011;36542;51.700;8.846;2023-05-10T00:21:05;37.67;;;26.93;;
50585;SDS011;36542;51.700;8.846;2023-05-10T00:23:31;36.10;;;26.77;;
50585;SDS011;36542;51.700;8.846;2023-05-10T00:25:56;35.77;;;27.90;;
50585;SDS011;36542;51.700;8.846;2023-05-10T00:28:22;27.60;;;22.40;;
50585;SDS011;36542;51.700;8.846;2023-05-10T00:30:48;28.87;;;22.10;;
50585;SDS011;36542;51.700;8.846;2023-05-10T00:33:13;26.03;;;20.17;;
50585;SDS011;36542;51.700;8.846;2023-05-10T00:35:39;20.53;;;16.43;;
50585;SDS011;36542;51.700;8.846;2023-05-10T00:38:05;21.57;;;17.80;;
50585;SDS011;36542;51.700;8.846;2023-05-10T00:40:30;20.90;;;17.57;;
50585;SDS011;36542;51.700;8.846;2023-05-10T00:42:56;19.87;;;16.43;;
50585;SDS011;36542;51.700;8.846;2023-05-10T00:45:22;22.03;;;16.73;;
50585;SDS011;36542;51.700;8.846;2023-05-10T00:47:48;23.70;;;18.53;;
50585;SDS011;36542;51.700;8.846;2023-05-10T00:50:14;21.20;;;16.60;;
50585;SDS011;36542;51.700;8.846;2023-05-10T00:52:40;20.13;;;16.63;;
50585;SDS011;36542;51.700;8.846;2023-05-10T00:55:07;23.00;;;18.30;;
50585;SDS011;36542;51.700;8.846;2023-05-10T00:57:34;23.57;;;17.90;;
50585;SDS011;36542;51.700;8.846;2023-05-10T00:59:59;23.37;;;17.77;;
50585;SDS011;36542;51.700;8.846;2023-05-10T01:02:28;23.33;;;18.67;;
50585;SDS011;36542;51.700;8.846;2023-05-10T01:04:53;22.63;;;17.50;;
50585;SDS011;36542;51.700;8.846;2023-05-10T01:07:20;24.57;;;18.53;;
50585;SDS011;36542;51.700;8.846;2023-05-10T01:09:45;21.07;;;17.50;;
50585;SDS011;36542;51.700;8.846;2023-05-10T01:12:11;19.97;;;16.77;;
50585;SDS011;36542;51.700;8.846;2023-05-10T01:14:37;24.50;;;16.50;;
50585;SDS011;36542;51.700;8.846;2023-05-10T01:17:03;18.67;;;14.63;;
50585;SDS011;36542;51.700;8.846;2023-05-10T01:19:30;20.70;;;16.10;;
50585;SDS011;36542;51.700;8.846;2023-05-10T01:22:16;18.87;;;14.93;;
50585;SDS011;36542;51.700;8.846;2023-05-10T01:31:05;19.37;;;14.63;;
50585;SDS011;36542;51.700;8.846;2023-05-10T01:34:01;21.47;;;15.80;;
50585;SDS011;36542;51.700;8.846;2023-05-10T01:36:35;24.40;;;16.83;;
50585;SDS011;36542;51.700;8.846;2023-05-10T01:39:08;24.13;;;16.83;;
50585;SDS011;36542;51.700;8.846;2023-05-10T01:41:49;25.07;;;18.13;;
50585;SDS011;36542;51.700;8.846;2023-05-10T01:44:34;27.37;;;18.00;;
50585;SDS011;36542;51.700;8.846;2023-05-10T01:47:15;26.83;;;18.13;;
50585;SDS011;36542;51.700;8.846;2023-05-10T01:49:49;26.23;;;18.73;;
50585;SDS011;36542;51.700;8.846;2023-05-10T01:52:17;29.60;;;19.60;;
50585;SDS011;36542;51.700;8.846;2023-05-10T01:54:53;22.43;;;17.43;;
50585;SDS011;36542;51.700;8.846;2023-05-10T01:57:22;24.50;;;17.50;;
50585;SDS011;36542;51.700;8.846;2023-05-10T01:59:50;27.80;;;17.37;;
50585;SDS011;36542;51.700;8.846;2023-05-10T02:02:17;27.30;;;17.30;;
50585;SDS011;36542;51.700;8.846;2023-05-10T02:04:45;19.07;;;14.73;;
50585;SDS011;36542;51.700;8.846;2023-05-10T02:07:12;18.43;;;13.90;;
50585;SDS011;36542;51.700;8.846;2023-05-10T02:09:39;17.87;;;13.70;;
50585;SDS011;36542;51.700;8.846;2023-05-10T02:12:08;16.33;;;12.40;;
50585;SDS011;36542;51.700;8.846;2023-05-10T02:14:35;16.83;;;13.73;;
50585;SDS011;36542;51.700;8.846;2023-05-10T02:17:02;21.83;;;14.37;;
50585;SDS011;36542;51.700;8.846;2023-05-10T02:19:30;21.63;;;15.57;;
50585;SDS011;36542;51.700;8.846;2023-05-10T02:21:57;23.63;;;16.17;;
50585;SDS011;36542;51.700;8.846;2023-05-10T02:24:25;24.97;;;16.30;;
50585;SDS011;36542;51.700;8.846;2023-05-10T02:26:53;27.40;;;17.80;;
50585;SDS011;36542;51.700;8.846;2023-05-10T02:29:20;25.57;;;18.33;;
50585;SDS011;36542;51.700;8.846;2023-05-10T02:31:51;27.43;;;18.67;;
50585;SDS011;36542;51.700;8.846;2023-05-10T02:34:19;26.63;;;19.30;;
50585;SDS011;36542;51.700;8.846;2023-05-10T02:36:46;28.37;;;18.37;;
50585;SDS011;36542;51.700;8.846;2023-05-10T02:39:12;26.43;;;18.17;;
50585;SDS011;36542;51.700;8.846;2023-05-10T02:41:40;31.67;;;21.00;;
50585;SDS011;36542;51.700;8.846;2023-05-10T02:44:07;31.30;;;20.83;;
50585;SDS011;36542;51.700;8.846;2023-05-10T02:46:34;37.83;;;23.17;;
50585;SDS011;36542;51.700;8.846;2023-05-10T02:49:00;36.07;;;21.97;;
50585;SDS011;36542;51.700;8.846;2023-05-10T02:51:26;38.10;;;22.53;;
50585;SDS011;36542;51.700;8.846;2023-05-10T02:53:56;36.83;;;22.70;;
50585;SDS011;36542;51.700;8.846;2023-05-10T02:56:30;33.80;;;22.23;;
50585;SDS011;36542;51.700;8.846;2023-05-10T02:58:58;33.77;;;20.90;;
50585;SDS011;36542;51.700;8.846;2023-05-10T03:01:23;42.13;;;22.70;;
50585;SDS011;36542;51.700;8.846;2023-05-10T03:03:49;35.50;;;22.67;;
50585;SDS011;36542;51.700;8.846;2023-05-10T03:06:14;31.80;;;21.37;;
50585;SDS011;36542;51.700;8.846;2023-05-10T03:08:41;32.50;;;19.87;;
50585;SDS011;36542;51.700;8.846;2023-05-10T03:11:22;31.57;;;20.60;;
50585;SDS011;36542;51.700;8.846;2023-05-10T03:16:38;31.60;;;20.63;;
50585;SDS011;36542;51.700;8.846;2023-05-10T03:22:30;34.13;;;21.80;;
50585;SDS011;36542;51.700;8.846;2023-05-10T03:24:59;33.50;;;21.27;;
50585;SDS011;36542;51.700;8.846;2023-05-10T03:27:30;36.40;;;23.53;;
50585;SDS011;36542;51.700;8.846;2023-05-10T03:29:57;36.17;;;22.43;;
50585;SDS011;36542;51.700;8.846;2023-05-10T03:32:23;31.57;;;21.80;;
50585;SDS011;36542;51.700;8.846;2023-05-10T03:34:48;30.23;;;21.43;;
50585;SDS011;36542;51.700;8.846;2023-05-10T03:37:14;33.00;;;22.63;;
50585;SDS011;36542;51.700;8.846;2023-05-10T03:39:39;33.30;;;21.80;;
50585;SDS011;36542;51.700;8.846;2023-05-10T03:42:05;32.53;;;21.60;;
50585;SDS011;36542;51.700;8.846;2023-05-10T03:44:30;31.60;;;21.60;;
50585;SDS011;36542;51.700;8.846;2023-05-10T03:46:58;28.87;;;21.77;;
50585;SDS011;36542;51.700;8.846;2023-05-10T03:49:23;26.03;;;20.67;;
50585;SDS011;36542;51.700;8.846;2023-05-10T03:51:49;25.83;;;17.67;;
50585;SDS011;36542;51.700;8.846;2023-05-10T03:54:14;24.47;;;17.70;;
50585;SDS011;36542;51.700;8.846;2023-05-10T03:56:40;22.33;;;16.73;;
50585;SDS011;36542;51.700;8.846;2023-05-10T03:59:05;24.23;;;16.67;;
50585;SDS011;36542;51.700;8.846;2023-05-10T04:01:34;23.90;;;17.07;;
50585;SDS011;36542;51.700;8.846;2023-05-10T04:04:00;25.40;;;17.40;;
50585;SDS011;36542;51.700;8.846;2023-05-10T04:06:25;28.67;;;18.33;;
50585;SDS011;36542;51.700;8.846;2023-05-10T04:08:51;31.47;;;19.40;;
50585;SDS011;36542;51.700;8.846;2023-05-10T04:11:16;29.33;;;18.73;;
50585;SDS011;36542;51.700;8.846;2023-05-10T04:13:42;30.77;;;19.40;;
50585;SDS011;36542;51.700;8.846;2023-05-10T04:16:08;26.97;;;17.90;;
50585;SDS011;36542;51.700;8.846;2023-05-10T04:18:33;22.23;;;15.00;;
50585;SDS011;36542;51.700;8.846;2023-05-10T04:20:59;20.50;;;14.80;;
50585;SDS011;36542;51.700;8.846;2023-05-10T04:23:25;23.97;;;15.70;;
50585;SDS011;36542;51.700;8.846;2023-05-10T04:25:51;25.77;;;16.33;;
50585;SDS011;36542;51.700;8.846;2023-05-10T04:28:17;32.57;;;19.23;;
50585;SDS011;36542;51.700;8.846;2023-05-10T04:30:43;26.33;;;17.00;;
50585;SDS011;36542;51.700;8.846;2023-05-10T04:33:08;24.60;;;15.90;;
50585;SDS011;36542;51.700;8.846;2023-05-10T04:35:34;24.53;;;15.73;;
50585;SDS011;36542;51.700;8.846;2023-05-10T04:38:00;22.83;;;15.30;;
50585;SDS011;36542;51.700;8.846;2023-05-10T04:40:25;27.40;;;16.87;;
50585;SDS011;36542;51.700;8.846;2023-05-10T04:42:51;29.93;;;17.77;;
50585;SDS011;36542;51.700;8.846;2023-05-10T04:45:16;26.70;;;17.00;;
50585;SDS011;36542;51.700;8.846;2023-05-10T04:47:42;26.67;;;17.17;;
50585;SDS011;36542;51.700;8.846;2023-05-10T04:50:07;26.53;;;16.87;;
50585;SDS011;36542;51.700;8.846;2023-05-10T04:52:33;29.50;;;17.90;;
50585;SDS011;36542;51.700;8.846;2023-05-10T04:54:59;28.73;;;16.80;;
50585;SDS011;36542;51.700;8.846;2023-05-10T04:57:24;26.27;;;16.30;;
50585;SDS011;36542;51.700;8.846;2023-05-10T04:59:50;20.67;;;14.07;;
50585;SDS011;36542;51.700;8.846;2023-05-10T05:02:15;18.67;;;13.10;;
50585;SDS011;36542;51.700;8.846;2023-05-10T05:04:41;15.07;;;11.00;;
50585;SDS011;36542;51.700;8.846;2023-05-10T05:07:07;16.60;;;12.50;;
50585;SDS011;36542;51.700;8.846;2023-05-10T05:09:32;18.40;;;10.97;;
50585;SDS011;36542;51.700;8.846;2023-05-10T05:11:58;11.90;;;9.10;;
50585;SDS011;36542;51.700;8.846;2023-05-10T05:14:23;8.70;;;6.60;;
50585;SDS011;36542;51.700;8.846;2023-05-10T05:16:50;8.10;;;6.50;;
50585;SDS011;36542;51.700;8.846;2023-05-10T05:19:16;6.33;;;5.73;;
50585;SDS011;36542;51.700;8.846;2023-05-10T05:21:41;8.83;;;6.30;;
50585;SDS011;36542;51.700;8.846;2023-05-10T05:24:07;7.37;;;6.00;;
50585;SDS011;36542;51.700;8.846;2023-05-10T05:26:32;6.43;;;5.07;;
50585;SDS011;36542;51.700;8.846;2023-05-10T05:28:58;7.47;;;6.00;;
50585;SDS011;36542;51.700;8.846;2023-05-10T05:31:23;8.63;;;6.40;;
50585;SDS011;36542;51.700;8.846;2023-05-10T05:33:49;10.50;;;6.83;;
50585;SDS011;36542;51.700;8.846;2023-05-10T05:36:14;7.87;;;6.53;;
50585;SDS011;36542;51.700;8.846;2023-05-10T05:38:40;10.80;;;7.77;;
50585;SDS011;36542;51.700;8.846;2023-05-10T05:41:05;9.80;;;8.27;;
50585;SDS011;36542;51.700;8.846;2023-05-10T05:43:31;11.93;;;8.60;;
50585;SDS011;36542;51.700;8.846;2023-05-10T05:45:56;10.47;;;6.90;;
50585;SDS011;36542;51.700;8.846;2023-05-10T05:48:22;9.40;;;7.37;;
50585;SDS011;36542;51.700;8.846;2023-05-10T05:50:48;9.60;;;6.97;;
50585;SDS011;36542;51.700;8.846;2023-05-10T05:53:14;8.20;;;6.20;;
50585;SDS011;36542;51.700;8.846;2023-05-10T05:55:39;9.13;;;7.00;;
50585;SDS011;36542;51.700;8.846;2023-05-10T05:58:05;10.50;;;7.87;;
50585;SDS011;36542;51.700;8.846;2023-05-10T06:00:30;11.57;;;8.20;;
50585;SDS011;36542;51.700;8.846;2023-05-10T06:02:56;12.90;;;9.37;;
50585;SDS011;36542;51.700;8.846;2023-05-10T06:05:21;13.97;;;10.20;;
50585;SDS011;36542;51.700;8.846;2023-05-10T06:07:47;12.97;;;9.77;;
50585;SDS011;36542;51.700;8.846;2023-05-10T06:10:12;12.40;;;9.73;;
50585;SDS011;36542;51.700;8.846;2023-05-10T06:12:38;13.00;;;9.10;;
50585;SDS011;36542;51.700;8.846;2023-05-10T06:15:04;11.67;;;9.00;;
50585;SDS011;36542;51.700;8.846;2023-05-10T06:17:30;10.50;;;8.37;;
50585;SDS011;36542;51.700;8.846;2023-05-10T06:19:55;11.47;;;8.20;;
50585;SDS011;36542;51.700;8.846;2023-05-10T06:22:21;12.50;;;7.77;;
50585;SDS011;36542;51.700;8.846;2023-05-10T06:24:47;9.00;;;6.83;;
50585;SDS011;36542;51.700;8.846;2023-05-10T06:27:13;7.50;;;6.40;;
50585;SDS011;36542;51.700;8.846;2023-05-10T06:29:39;9.60;;;6.20;;
50585;SDS011;36542;51.700;8.846;2023-05-10T06:32:04;7.73;;;6.07;;
50585;SDS011;36542;51.700;8.846;2023-05-10T06:34:30;7.83;;;5.47;;
50585;SDS011;36542;51.700;8.846;2023-05-10T06:36:55;6.47;;;5.33;;
50585;SDS011;36542;51.700;8.846;2023-05-10T06:39:21;7.67;;;5.40;;
50585;SDS011;36542;51.700;8.846;2023-05-10T06:41:46;6.30;;;4.97;;
50585;SDS011;36542;51.700;8.846;2023-05-10T06:44:12;8.43;;;4.87;;
50585;SDS011;36542;51.700;8.846;2023-05-10T06:46:37;5.20;;;4.60;;
50585;SDS011;36542;51.700;8.846;2023-05-10T06:49:03;5.97;;;4.73;;
50585;SDS011;36542;51.700;8.846;2023-05-10T06:51:29;8.87;;;4.83;;
50585;SDS011;36542;51.700;8.846;2023-05-10T06:53:55;7.70;;;5.13;;
50585;SDS011;36542;51.700;8.846;2023-05-10T06:56:20;6.47;;;5.07;;
50585;SDS011;36542;51.700;8.846;2023-05-10T06:58:46;8.90;;;5.97;;
50585;SDS011;36542;51.700;8.846;2023-05-10T07:01:12;6.47;;;5.50;;
50585;SDS011;36542;51.700;8.846;2023-05-10T07:03:38;8.27;;;5.80;;
50585;SDS011;36542;51.700;8.846;2023-05-10T07:06:04;7.70;;;5.97;;
50585;SDS011;36542;51.700;8.846;2023-05-10T07:08:33;7.30;;;5.90;;
50585;SDS011;36542;51.700;8.846;2023-05-10T07:11:00;6.57;;;5.40;;
50585;SDS011;36542;51.700;8.846;2023-05-10T07:13:26;6.33;;;4.83;;
50585;SDS011;36542;51.700;8.846;2023-05-10T07:15:52;6.73;;;5.13;;
50585;SDS011;36542;51.700;8.846;2023-05-10T07:18:17;6.63;;;5.27;;
50585;SDS011;36542;51.700;8.846;2023-05-10T07:20:43;6.97;;;6.17;;
50585;SDS011;36542;51.700;8.846;2023-05-10T07:23:08;7.03;;;5.93;;
50585;SDS011;36542;51.700;8.846;2023-05-10T07:25:34;9.73;;;6.70;;
50585;SDS011;36542;51.700;8.846;2023-05-10T07:27:59;9.70;;;6.80;;
50585;SDS011;36542;51.700;8.846;2023-05-10T07:30:25;9.80;;;7.73;;
50585;SDS011;36542;51.700;8.846;2023-05-10T07:32:50;8.00;;;6.80;;
50585;SDS011;36542;51.700;8.846;2023-05-10T07:35:16;9.07;;;6.40;;
50585;SDS011;36542;51.700;8.846;2023-05-10T07:37:41;6.77;;;6.07;;
50585;SDS011;36542;51.700;8.846;2023-05-10T07:40:07;7.43;;;5.37;;
50585;SDS011;36542;51.700;8.846;2023-05-10T07:42:33;5.07;;;4.60;;
50585;SDS011;36542;51.700;8.846;2023-05-10T07:44:59;5.20;;;4.30;;
50585;SDS011;36542;51.700;8.846;2023-05-10T07:47:24;4.43;;;4.03;;
50585;SDS011;36542;51.700;8.846;2023-05-10T07:49:49;4.43;;;3.93;;
50585;SDS011;36542;51.700;8.846;2023-05-10T07:52:15;5.97;;;4.40;;
50585;SDS011;36542;51.700;8.846;2023-05-10T07:54:40;5.33;;;4.23;;
50585;SDS011;36542;51.700;8.846;2023-05-10T07:57:06;4.97;;;4.43;;
50585;SDS011;36542;51.700;8.846;2023-05-10T07:59:31;5.77;;;5.03;;
50585;SDS011;36542;51.700;8.846;2023-05-10T08:01:57;7.73;;;5.17;;
50585;SDS011;36542;51.700;8.846;2023-05-10T08:04:23;6.77;;;5.20;;
50585;SDS011;36542;51.700;8.846;2023-05-10T08:06:49;5.77;;;5.07;;
50585;SDS011;36542;51.700;8.846;2023-05-10T08:09:14;8.07;;;6.37;;
50585;SDS011;36542;51.700;8.846;2023-05-10T08:11:41;9.47;;;6.80;;
50585;SDS011;36542;51.700;8.846;2023-05-10T08:14:06;9.97;;;7.00;;
50585;SDS011;36542;51.700;8.846;2023-05-10T08:16:32;8.50;;;7.07;;
50585;SDS011;36542;51.700;8.846;2023-05-10T08:18:57;11.03;;;7.27;;
50585;SDS011;36542;51.700;8.846;2023-05-10T08:21:22;10.27;;;7.30;;
50585;SDS011;36542;51.700;8.846;2023-05-10T08:23:48;10.33;;;8.33;;
50585;SDS011;36542;51.700;8.846;2023-05-10T08:26:14;9.87;;;7.80;;
50585;SDS011;36542;51.700;8.846;2023-05-10T08:28:39;12.17;;;8.27;;
50585;SDS011;36542;51.700;8.846;2023-05-10T08:31:05;10.47;;;8.37;;
50585;SDS011;36542;51.700;8.846;2023-05-10T08:33:30;10.20;;;7.70;;
50585;SDS011;36542;51.700;8.846;2023-05-10T08:35:56;11.10;;;7.47;;
50585;SDS011;36542;51.700;8.846;2023-05-10T08:38:21;12.73;;;10.00;;
50585;SDS011;36542;51.700;8.846;2023-05-10T08:40:47;12.53;;;10.40;;
50585;SDS011;36542;51.700;8.846;2023-05-10T08:43:15;20.07;;;13.53;;
50585;SDS011;36542;51.700;8.846;2023-05-10T08:45:42;21.97;;;15.93;;
50585;SDS011;36542;51.700;8.846;2023-05-10T08:48:10;26.23;;;18.57;;
50585;SDS011;36542;51.700;8.846;2023-05-10T08:50:37;30.63;;;19.47;;
50585;SDS011;36542;51.700;8.846;2023-05-10T08:53:04;30.10;;;20.47;;
50585;SDS011;36542;51.700;8.846;2023-05-10T08:55:34;31.30;;;20.13;;
50585;SDS011;36542;51.700;8.846;2023-05-10T08:58:01;24.20;;;18.27;;
50585;SDS011;36542;51.700;8.846;2023-05-10T09:00:27;27.70;;;20.37;;
50585;SDS011;36542;51.700;8.846;2023-05-10T09:02:53;28.63;;;21.33;;
50585;SDS011;36542;51.700;8.846;2023-05-10T09:05:19;27.63;;;19.73;;
50585;SDS011;36542;51.700;8.846;2023-05-10T09:07:44;30.03;;;21.33;;
50585;SDS011;36542;51.700;8.846;2023-05-10T09:10:10;27.13;;;18.17;;
50585;SDS011;36542;51.700;8.846;2023-05-10T09:12:36;29.13;;;18.67;;
50585;SDS011;36542;51.700;8.846;2023-05-10T09:15:03;27.07;;;18.03;;
50585;SDS011;36542;51.700;8.846;2023-05-10T09:17:30;26.03;;;17.57;;
50585;SDS011;36542;51.700;8.846;2023-05-10T09:19:59;27.67;;;18.27;;
50585;SDS011;36542;51.700;8.846;2023-05-10T09:22:26;32.40;;;19.53;;
50585;SDS011;36542;51.700;8.846;2023-05-10T09:25:06;27.20;;;19.37;;
50585;SDS011;36542;51.700;8.846;2023-05-10T09:27:38;29.27;;;19.97;;
50585;SDS011;36542;51.700;8.846;2023-05-10T09:30:05;32.13;;;21.33;;
50585;SDS011;36542;51.700;8.846;2023-05-10T09:32:38;28.17;;;19.17;;
50585;SDS011;36542;51.700;8.846;2023-05-10T09:35:05;31.13;;;21.10;;
50585;SDS011;36542;51.700;8.846;2023-05-10T09:37:32;28.97;;;20.07;;
50585;SDS011;36542;51.700;8.846;2023-05-10T09:39:57;31.07;;;20.63;;
50585;SDS011;36542;51.700;8.846;2023-05-10T09:42:22;26.37;;;20.00;;
50585;SDS011;36542;51.700;8.846;2023-05-10T09:44:48;30.57;;;20.30;;
50585;SDS011;36542;51.700;8.846;2023-05-10T09:47:16;30.93;;;21.90;;
50585;SDS011;36542;51.700;8.846;2023-05-10T09:49:43;25.10;;;18.33;;
50585;SDS011;36542;51.700;8.846;2023-05-10T09:52:13;24.27;;;18.53;;
50585;SDS011;36542;51.700;8.846;2023-05-10T09:54:42;28.70;;;19.73;;
50585;SDS011;36542;51.700;8.846;2023-05-10T09:57:20;28.23;;;20.20;;
50585;SDS011;36542;51.700;8.846;2023-05-10T09:59:47;30.40;;;19.37;;
50585;SDS011;36542;51.700;8.846;2023-05-10T10:02:13;29.10;;;20.70;;
50585;SDS011;36542;51.700;8.846;2023-05-10T10:04:42;26.70;;;19.83;;
50585;SDS011;36542;51.700;8.846;2023-05-10T10:07:08;28.50;;;20.47;;
50585;SDS011;36542;51.700;8.846;2023-05-10T10:09:34;26.87;;;20.93;;
50585;SDS011;36542;51.700;8.846;2023-05-10T10:12:00;28.33;;;20.20;;
50585;SDS011;36542;51.700;8.846;2023-05-10T10:14:27;26.93;;;19.97;;
50585;SDS011;36542;51.700;8.846;2023-05-10T10:16:53;26.70;;;19.45;;
50585;SDS011;36542;51.700;8.846;2023-05-10T10:19:19;26.97;;;20.10;;
50585;SDS011;36542;51.700;8.846;2023-05-10T10:21:45;25.38;;;19.30;;
50585;SDS011;36542;51.700;8.846;2023-05-10T10:24:11;24.13;;;18.77;;
50585;SDS011;36542;51.700;8.846;2023-05-10T10:26:37;27.10;;;19.70;;
50585;SDS011;36542;51.700;8.846;2023-05-10T10:29:12;25.42;;;19.25;;
50585;SDS011;36542;51.700;8.846;2023-05-10T10:34:21;23.00;;;18.05;;
50585;SDS011;36542;51.700;8.846;2023-05-10T10:36:52;25.45;;;18.92;;
50585;SDS011;36542;51.700;8.846;2023-05-10T10:39:18;21.98;;;17.67;;
50585;SDS011;36542;51.700;8.846;2023-05-10T10:41:49;25.52;;;19.42;;
50585;SDS011;36542;51.700;8.846;2023-05-10T10:49:37;21.55;;;17.77;;
50585;SDS011;36542;51.700;8.846;2023-05-10T10:55:13;26.88;;;18.63;;
50585;SDS011;36542;51.700;8.846;2023-05-10T10:57:43;23.60;;;18.30;;
50585;SDS011;36542;51.700;8.846;2023-05-10T11:00:17;25.43;;;20.10;;
50585;SDS011;36542;51.700;8.846;2023-05-10T11:02:47;27.10;;;20.40;;
50585;SDS011;36542;51.700;8.846;2023-05-10T11:05:23;28.77;;;21.40;;
50585;SDS011;36542;51.700;8.846;2023-05-10T11:07:55;26.67;;;21.00;;
50585;SDS011;36542;51.700;8.846;2023-05-10T11:10:23;27.98;;;20.98;;
50585;SDS011;36542;51.700;8.846;2023-05-10T11:12:53;23.27;;;18.35;;
50585;SDS011;36542;51.700;8.846;2023-05-10T11:15:38;25.02;;;19.13;;
50585;SDS011;36542;51.700;8.846;2023-05-10T11:18:24;24.45;;;19.02;;
50585;SDS011;36542;51.700;8.846;2023-05-10T11:20:51;18.67;;;15.75;;
50585;SDS011;36542;51.700;8.846;2023-05-10T11:23:29;21.80;;;15.55;;
50585;SDS011;36542;51.700;8.846;2023-05-10T11:26:21;16.38;;;14.38;;
50585;SDS011;36542;51.700;8.846;2023-05-10T11:28:50;18.23;;;15.00;;
50585;SDS011;36542;51.700;8.846;2023-05-10T11:31:17;22.35;;;16.88;;
50585;SDS011;36542;51.700;8.846;2023-05-10T11:33:46;25.85;;;18.70;;
50585;SDS011;36542;51.700;8.846;2023-05-10T11:36:17;21.42;;;17.40;;
50585;SDS011;36542;51.700;8.846;2023-05-10T11:38:44;25.30;;;18.43;;
50585;SDS011;36542;51.700;8.846;2023-05-10T11:41:10;25.83;;;18.33;;
50585;SDS011;36542;51.700;8.846;2023-05-10T11:43:37;24.67;;;18.50;;
50585;SDS011;36542;51.700;8.846;2023-05-10T11:46:05;22.37;;;18.17;;
50585;SDS011;36542;51.700;8.846;2023-05-10T11:48:31;22.43;;;17.77;;
50585;SDS011;36542;51.700;8.846;2023-05-10T11:50:57;23.77;;;18.43;;
50585;SDS011;36542;51.700;8.846;2023-05-10T11:53:23;24.43;;;20.03;;
50585;SDS011;36542;51.700;8.846;2023-05-10T11:55:50;30.57;;;21.33;;
50585;SDS011;36542;51.700;8.846;2023-05-10T11:58:17;27.83;;;20.83;;
50585;SDS011;36542;51.700;8.846;2023-05-10T12:00:43;31.20;;;21.10;;
50585;SDS011;36542;51.700;8.846;2023-05-10T12:03:10;27.60;;;20.97;;
50585;SDS011;36542;51.700;8.846;2023-05-10T12:05:36;29.60;;;20.47;;
50585;SDS011;36542;51.700;8.846;2023-05-10T12:08:11;30.73;;;21.23;;
50585;SDS011;36542;51.700;8.846;2023-05-10T12:10:37;29.30;;;20.87;;
50585;SDS011;36542;51.700;8.846;2023-05-10T12:13:03;26.10;;;20.20;;
50585;SDS011;36542;51.700;8.846;2023-05-10T12:15:28;25.77;;;19.37;;
50585;SDS011;36542;51.700;8.846;2023-05-10T12:17:54;25.58;;;19.55;;
50585;SDS011;36542;51.700;8.846;2023-05-10T12:20:22;24.83;;;19.33;;
50585;SDS011;36542;51.700;8.846;2023-05-10T12:22:52;26.05;;;19.88;;
50585;SDS011;36542;51.700;8.846;2023-05-10T12:25:20;26.88;;;20.20;;
50585;SDS011;36542;51.700;8.846;2023-05-10T12:27:47;25.25;;;17.50;;
50585;SDS011;36542;51.700;8.846;2023-05-10T12:30:21;20.35;;;15.10;;
50585;SDS011;36542;51.700;8.846;2023-05-10T12:32:46;13.67;;;11.70;;
50585;SDS011;36542;51.700;8.846;2023-05-10T12:35:12;14.67;;;10.90;;
50585;SDS011;36542;51.700;8.846;2023-05-10T12:37:37;13.23;;;10.23;;
50585;SDS011;36542;51.700;8.846;2023-05-10T12:40:06;12.80;;;10.60;;
50585;SDS011;36542;51.700;8.846;2023-05-10T12:42:34;15.70;;;12.20;;
50585;SDS011;36542;51.700;8.846;2023-05-10T12:45:00;18.33;;;13.80;;
50585;SDS011;36542;51.700;8.846;2023-05-10T12:47:27;17.87;;;13.67;;
50585;SDS011;36542;51.700;8.846;2023-05-10T12:49:53;16.50;;;12.93;;
50585;SDS011;36542;51.700;8.846;2023-05-10T12:52:18;16.60;;;11.53;;
50585;SDS011;36542;51.700;8.846;2023-05-10T12:54:43;11.73;;;9.70;;
50585;SDS011;36542;51.700;8.846;2023-05-10T12:57:09;13.43;;;9.43;;
50585;SDS011;36542;51.700;8.846;2023-05-10T12:59:35;8.77;;;7.20;;
50585;SDS011;36542;51.700;8.846;2023-05-10T13:02:00;12.13;;;8.07;;
50585;SDS011;36542;51.700;8.846;2023-05-10T13:04:26;11.50;;;8.03;;
50585;SDS011;36542;51.700;8.846;2023-05-10T13:06:51;7.80;;;7.00;;
50585;SDS011;36542;51.700;8.846;2023-05-10T13:09:17;7.97;;;6.23;;
50585;SDS011;36542;51.700;8.846;2023-05-10T13:11:42;6.70;;;5.57;;
50585;SDS011;36542;51.700;8.846;2023-05-10T13:14:08;4.67;;;4.23;;
50585;SDS011;36542;51.700;8.846;2023-05-10T13:16:33;4.00;;;3.60;;
50585;SDS011;36542;51.700;8.846;2023-05-10T13:18:59;5.07;;;4.20;;
50585;SDS011;36542;51.700;8.846;2023-05-10T13:21:24;5.33;;;4.60;;
50585;SDS011;36542;51.700;8.846;2023-05-10T13:23:50;5.20;;;4.27;;
50585;SDS011;36542;51.700;8.846;2023-05-10T13:26:16;5.57;;;4.77;;
50585;SDS011;36542;51.700;8.846;2023-05-10T13:28:41;8.90;;;5.53;;
50585;SDS011;36542;51.700;8.846;2023-05-10T13:31:07;8.23;;;5.00;;
50585;SDS011;36542;51.700;8.846;2023-05-10T13:33:32;6.30;;;4.77;;
50585;SDS011;36542;51.700;8.846;2023-05-10T13:35:58;5.50;;;4.57;;
50585;SDS011;36542;51.700;8.846;2023-05-10T13:38:23;9.15;;;4.60;;
50585;SDS011;36542;51.700;8.846;2023-05-10T13:40:49;3.08;;;2.80;;
50585;SDS011;36542;51.700;8.846;2023-05-10T13:43:17;3.58;;;3.20;;
50585;SDS011;36542;51.700;8.846;2023-05-10T13:45:45;4.67;;;4.17;;
50585;SDS011;36542;51.700;8.846;2023-05-10T13:48:11;5.90;;;4.73;;
50585;SDS011;36542;51.700;8.846;2023-05-10T13:50:36;6.07;;;5.10;;
50585;SDS011;36542;51.700;8.846;2023-05-10T13:53:02;6.30;;;5.47;;
50585;SDS011;36542;51.700;8.846;2023-05-10T13:55:27;7.03;;;6.00;;
50585;SDS011;36542;51.700;8.846;2023-05-10T13:57:53;8.90;;;6.47;;
50585;SDS011;36542;51.700;8.846;2023-05-10T14:00:19;7.97;;;6.53;;
50585;SDS011;36542;51.700;8.846;2023-05-10T14:02:44;8.23;;;6.80;;
50585;SDS011;36542;51.700;8.846;2023-05-10T14:05:10;8.93;;;7.40;;
50585;SDS011;36542;51.700;8.846;2023-05-10T14:07:35;10.03;;;7.20;;
50585;SDS011;36542;51.700;8.846;2023-05-10T14:10:01;11.10;;;8.57;;
50585;SDS011;36542;51.700;8.846;2023-05-10T14:12:26;10.37;;;8.47;;
50585;SDS011;36542;51.700;8.846;2023-05-10T14:14:52;13.97;;;10.80;;
50585;SDS011;36542;51.700;8.846;2023-05-10T14:17:18;13.63;;;11.03;;
50585;SDS011;36542;51.700;8.846;2023-05-10T14:19:44;17.53;;;11.33;;
50585;SDS011;36542;51.700;8.846;2023-05-10T14:22:09;16.23;;;13.60;;
50585;SDS011;36542;51.700;8.846;2023-05-10T14:24:35;22.20;;;13.57;;
50585;SDS011;36542;51.700;8.846;2023-05-10T14:27:00;19.33;;;14.07;;
50585;SDS011;36542;51.700;8.846;2023-05-10T14:29:26;17.17;;;13.10;;
50585;SDS011;36542;51.700;8.846;2023-05-10T14:31:52;19.30;;;14.30;;
50585;SDS011;36542;51.700;8.846;2023-05-10T14:34:17;18.27;;;15.10;;
50585;SDS011;36542;51.700;8.846;2023-05-10T14:36:43;22.47;;;16.73;;
50585;SDS011;36542;51.700;8.846;2023-05-10T14:39:08;24.33;;;17.10;;
50585;SDS011;36542;51.700;8.846;2023-05-10T14:41:35;24.97;;;16.17;;
50585;SDS011;36542;51.700;8.846;2023-05-10T14:44:00;24.60;;;16.73;;
50585;SDS011;36542;51.700;8.846;2023-05-10T14:46:28;24.50;;;17.33;;
50585;SDS011;36542;51.700;8.846;2023-05-10T14:48:54;27.97;;;20.33;;
50585;SDS011;36542;51.700;8.846;2023-05-10T14:51:20;27.67;;;19.00;;